Hovedside
METAR-TAF:

METAR-TAF

Lufthavner :

Karlstad, Sverige

Karlstad lufthavn

breddegrad: 59-26-41N, lengdegrad: 013-20-15E, høyde over havet: 107 m

Gjeldene værobservasjon

Denne rapporten ble laget for 39 minutter siden, klokken 11:20 UTC
Vind 10 kt fra Øst
Temperatur 7°C
Luftfuktighet 76%
Trykk 1014 hPa
Sikt 10 km eller mer

METAR: ESOK 221120Z AUTO 09010KT 9999 OVC022/// 07/03 Q1014

Tid: 13:59 (11:59 UTC)

Varsel

Denne rapporten ble laget for 29 minutter siden, klokken 11:30 UTC
Varsel gyldig fra 22. klokken 12 UTC til 22. klokken 21 UTC
Vind 10 kt fra Øst
Sikt 10 km eller mer
Brutte skyer i en høyde av 2500 ft

TAF: ESOK 221130Z 2212/2221 09010KT 9999 BKN025

Værobservasjoner og værvarsel for over 4000 flyplasser (METAR- og TAF-rapporter).

Tilgjengelige stasjoner er representert av de røde og gule prikkene på kartet.

Hold musepekeren over prikken for å se navnet på stasjonen.

Klikk så for å se værobservasjoner og -varsler.

For å forandre kartet kan du klikke på den grønne knappen med svart kryss for å zoome inn, på den grønne knappen med strek for å zoome ut, eller på de grønne pilene for å se tilstøtende kart.


METAR-TAF: